createdAt,value
2022-09-15T00:01:20.404Z,18.59
2022-09-15T00:03:48.749Z,18.61
2022-09-15T00:06:16.852Z,18.59
2022-09-15T00:08:46.132Z,18.52
2022-09-15T00:11:18.382Z,18.56
2022-09-15T00:13:47.394Z,18.58
2022-09-15T00:16:16.420Z,18.49
2022-09-15T00:18:45.482Z,18.49
2022-09-15T00:21:16.335Z,18.51
2022-09-15T00:23:45.681Z,18.47
2022-09-15T00:26:16.341Z,18.43
2022-09-15T00:28:45.311Z,18.43
2022-09-15T00:31:15.609Z,18.39
2022-09-15T00:33:43.901Z,18.36
2022-09-15T00:36:14.262Z,18.29
2022-09-15T00:38:42.747Z,18.34
2022-09-15T00:41:14.445Z,18.31
2022-09-15T00:43:49.122Z,18.29
2022-09-15T00:46:19.595Z,18.31
2022-09-15T00:48:51.933Z,18.39
2022-09-15T00:51:24.001Z,18.36
2022-09-15T00:53:53.715Z,18.44
2022-09-15T00:56:24.558Z,18.41
2022-09-15T00:58:57.412Z,18.33
2022-09-15T01:01:28.606Z,18.44
2022-09-15T01:03:57.137Z,18.43
2022-09-15T01:06:28.718Z,18.42
2022-09-15T01:09:02.805Z,18.43
2022-09-15T01:11:33.134Z,18.37
2022-09-15T01:14:02.053Z,18.45
2022-09-15T01:16:50.027Z,18.46
2022-09-15T01:19:45.637Z,18.56
2022-09-15T01:22:28.926Z,18.49
2022-09-15T01:25:07.563Z,18.44
2022-09-15T01:28:14.044Z,18.36
2022-09-15T01:30:50.288Z,18.42
2022-09-15T01:33:27.957Z,18.39
2022-09-15T01:36:05.836Z,18.45
2022-09-15T01:38:46.930Z,18.55
2022-09-15T01:41:18.350Z,18.51
2022-09-15T01:43:52.941Z,18.45
2022-09-15T01:46:25.537Z,18.45
2022-09-15T01:48:56.238Z,18.43
2022-09-15T01:51:26.846Z,18.41
2022-09-15T01:53:57.533Z,18.45
2022-09-15T01:56:25.435Z,18.44
2022-09-15T01:58:53.613Z,18.52
2022-09-15T02:01:29.829Z,18.55
2022-09-15T02:04:03.540Z,18.55
2022-09-15T02:06:37.428Z,18.53
2022-09-15T02:09:13.611Z,18.54
2022-09-15T02:11:52.287Z,18.52
2022-09-15T02:14:33.902Z,18.51
2022-09-15T02:17:03.664Z,18.51
2022-09-15T02:19:37.220Z,18.46
2022-09-15T02:22:11.183Z,18.42
2022-09-15T02:24:51.920Z,18.41
2022-09-15T02:27:24.252Z,18.44
2022-09-15T02:29:56.372Z,18.38
2022-09-15T02:32:29.273Z,18.29
2022-09-15T02:34:59.691Z,18.38
2022-09-15T02:37:28.782Z,18.39
2022-09-15T02:39:59.101Z,18.42
2022-09-15T02:42:28.846Z,18.43
2022-09-15T02:44:57.200Z,18.43
2022-09-15T02:47:28.322Z,18.41
2022-09-15T02:49:57.182Z,18.46
2022-09-15T02:52:25.465Z,18.45
2022-09-15T02:54:54.450Z,18.43
2022-09-15T02:57:22.348Z,18.41
2022-09-15T03:00:07.922Z,18.39
2022-09-15T03:02:37.470Z,18.37
2022-09-15T03:05:05.991Z,18.38
2022-09-15T03:07:33.948Z,18.38
2022-09-15T03:10:01.827Z,18.37
2022-09-15T03:12:29.843Z,18.33
2022-09-15T03:14:57.737Z,18.35
2022-09-15T03:17:25.708Z,18.35
2022-09-15T03:19:54.993Z,18.34
2022-09-15T03:22:22.878Z,18.33
2022-09-15T03:24:51.496Z,18.38
2022-09-15T03:27:19.396Z,18.32
2022-09-15T03:29:47.408Z,18.34
2022-09-15T03:32:15.526Z,18.33
2022-09-15T03:34:43.781Z,18.32
2022-09-15T03:37:13.159Z,18.31
2022-09-15T03:39:42.223Z,18.28
2022-09-15T03:42:10.285Z,18.23
2022-09-15T03:44:38.220Z,18.19
2022-09-15T03:47:06.563Z,18.16
2022-09-15T03:49:34.550Z,18.14
2022-09-15T03:52:02.902Z,18.13
2022-09-15T03:54:32.533Z,18.10
2022-09-15T03:57:00.406Z,18.08
2022-09-15T03:59:28.323Z,18.06
2022-09-15T04:01:56.316Z,18.01
2022-09-15T04:04:24.230Z,18.00
2022-09-15T04:06:52.118Z,18.03
2022-09-15T04:09:21.527Z,17.96
2022-09-15T04:11:50.785Z,17.89
2022-09-15T04:14:18.685Z,17.91
2022-09-15T04:16:46.663Z,17.86
2022-09-15T04:19:15.007Z,17.83
2022-09-15T04:21:42.930Z,17.79
2022-09-15T04:24:10.825Z,17.80
2022-09-15T04:26:39.228Z,17.85
2022-09-15T04:29:14.203Z,17.76
2022-09-15T04:31:42.170Z,17.78
2022-09-15T04:34:10.326Z,17.77
2022-09-15T04:36:38.366Z,17.73
2022-09-15T04:39:07.252Z,17.70
2022-09-15T04:41:35.217Z,17.74
2022-09-15T04:44:03.672Z,17.67
2022-09-15T04:46:32.969Z,17.75
2022-09-15T04:49:01.011Z,17.76
2022-09-15T04:51:29.007Z,17.74
2022-09-15T04:53:56.909Z,17.76
2022-09-15T04:56:26.971Z,17.74
2022-09-15T04:59:02.491Z,17.76
2022-09-15T05:01:35.389Z,17.72
2022-09-15T05:04:05.101Z,17.72
2022-09-15T05:06:34.920Z,17.65
2022-09-15T05:09:09.798Z,17.65
2022-09-15T05:11:38.962Z,17.61
2022-09-15T05:14:08.153Z,17.59
2022-09-15T05:16:37.517Z,17.70
2022-09-15T05:19:05.737Z,17.65
2022-09-15T05:21:34.004Z,17.58
2022-09-15T05:24:02.232Z,17.61
2022-09-15T05:26:31.154Z,17.56
2022-09-15T05:28:59.430Z,17.46
2022-09-15T05:31:30.881Z,17.44
2022-09-15T05:34:01.902Z,17.37
2022-09-15T05:36:30.053Z,17.33
2022-09-15T05:38:58.324Z,17.26
2022-09-15T05:41:28.279Z,17.37
2022-09-15T05:43:58.002Z,17.30
2022-09-15T05:46:27.359Z,17.31
2022-09-15T05:48:57.956Z,17.26
2022-09-15T05:51:27.723Z,17.27
2022-09-15T05:53:55.658Z,17.19
2022-09-15T05:56:24.049Z,17.08
2022-09-15T05:58:52.279Z,17.13
2022-09-15T06:01:22.337Z,17.14
2022-09-15T06:03:50.529Z,17.13
2022-09-15T06:06:18.502Z,17.16
2022-09-15T06:08:54.202Z,17.10
2022-09-15T06:11:27.168Z,17.15
2022-09-15T06:13:55.197Z,17.12
2022-09-15T06:16:26.308Z,17.13
2022-09-15T06:18:55.573Z,17.13
2022-09-15T06:21:25.456Z,17.08
2022-09-15T06:23:56.127Z,17.02
2022-09-15T06:26:24.795Z,17.19
2022-09-15T06:28:54.591Z,17.25
2022-09-15T06:31:23.733Z,17.24
2022-09-15T06:33:54.082Z,17.18
2022-09-15T06:36:24.393Z,17.17
2022-09-15T06:38:52.577Z,17.18
2022-09-15T06:41:22.605Z,17.07
2022-09-15T06:43:50.913Z,17.09
2022-09-15T06:46:20.978Z,17.08
2022-09-15T06:48:49.315Z,17.14
2022-09-15T06:51:18.875Z,17.25
2022-09-15T06:53:47.624Z,17.21
2022-09-15T06:56:16.754Z,17.27
2022-09-15T06:58:48.970Z,17.28
2022-09-15T07:01:22.498Z,17.23
2022-09-15T07:03:51.029Z,17.29
2022-09-15T07:06:20.147Z,17.27
2022-09-15T07:08:48.178Z,17.29
2022-09-15T07:11:16.503Z,17.33
2022-09-15T07:13:45.798Z,17.43
2022-09-15T07:16:14.601Z,17.46
2022-09-15T07:18:43.644Z,17.44
2022-09-15T07:21:13.990Z,17.43
2022-09-15T07:23:42.345Z,17.44
2022-09-15T07:26:12.870Z,17.35
2022-09-15T07:28:43.116Z,17.43
2022-09-15T07:31:14.431Z,17.45
2022-09-15T07:33:42.749Z,17.44
2022-09-15T07:36:11.709Z,17.38
2022-09-15T07:38:41.513Z,17.42
2022-09-15T07:41:11.324Z,17.48
2022-09-15T07:43:39.702Z,17.47
2022-09-15T07:46:08.041Z,17.45
2022-09-15T07:48:37.408Z,17.49
2022-09-15T07:51:05.441Z,17.59
2022-09-15T07:53:33.412Z,17.61
2022-09-15T07:56:01.301Z,17.66
2022-09-15T07:58:29.717Z,17.77
2022-09-15T08:01:02.754Z,17.95
2022-09-15T08:03:30.846Z,18.00
2022-09-15T08:06:01.085Z,18.08
2022-09-15T08:08:30.153Z,18.05
2022-09-15T08:10:58.166Z,17.95
2022-09-15T08:13:26.205Z,17.94
2022-09-15T08:15:54.147Z,17.96
2022-09-15T08:18:22.134Z,17.96
2022-09-15T08:20:50.015Z,18.05
2022-09-15T08:23:19.329Z,18.00
2022-09-15T08:25:47.776Z,17.93
2022-09-15T08:28:15.705Z,17.89
2022-09-15T08:30:43.618Z,17.86
2022-09-15T08:33:11.759Z,17.86
2022-09-15T08:35:39.615Z,17.82
2022-09-15T08:38:07.488Z,17.81
2022-09-15T08:40:38.931Z,17.78
2022-09-15T08:43:14.775Z,17.79
2022-09-15T08:45:50.639Z,17.74
2022-09-15T08:48:21.572Z,17.77
2022-09-15T08:50:53.142Z,17.99
2022-09-15T08:53:26.456Z,18.03
2022-09-15T08:55:57.101Z,18.17
2022-09-15T08:58:27.012Z,18.16
2022-09-15T09:01:04.266Z,18.29
2022-09-15T09:03:56.739Z,18.32
2022-09-15T09:06:41.578Z,18.27
2022-09-15T09:09:25.875Z,18.30
2022-09-15T09:12:18.145Z,18.34
2022-09-15T09:15:01.795Z,18.37
2022-09-15T09:17:46.465Z,18.48
2022-09-15T09:20:33.632Z,18.70
2022-09-15T09:23:05.324Z,18.79
2022-09-15T09:25:33.328Z,18.77
2022-09-15T09:28:04.598Z,18.82
2022-09-15T09:30:34.331Z,18.86
2022-09-15T09:33:15.870Z,19.04
2022-09-15T09:35:47.549Z,18.98
2022-09-15T09:38:33.076Z,18.98
2022-09-15T09:41:02.500Z,19.06
2022-09-15T09:43:33.655Z,19.08
2022-09-15T09:46:02.296Z,19.14
2022-09-15T09:48:31.211Z,19.15
2022-09-15T09:50:59.105Z,19.22
2022-09-15T09:53:32.231Z,19.26
2022-09-15T09:56:24.370Z,19.79
2022-09-15T09:58:55.269Z,20.31
2022-09-15T10:01:25.023Z,20.20
2022-09-15T10:04:12.682Z,19.95
2022-09-15T10:06:42.121Z,20.29
2022-09-15T10:09:14.465Z,20.24
2022-09-15T10:11:45.033Z,20.02
2022-09-15T10:14:26.505Z,19.92
2022-09-15T10:17:02.651Z,20.11
2022-09-15T10:19:33.767Z,20.19
2022-09-15T10:22:03.146Z,20.38
2022-09-15T10:24:34.821Z,20.50
2022-09-15T10:27:17.414Z,20.84
2022-09-15T10:29:47.255Z,20.68
2022-09-15T10:32:25.974Z,20.59
2022-09-15T10:35:06.584Z,20.45
2022-09-15T10:37:38.923Z,20.43
2022-09-15T10:40:35.078Z,20.04
2022-09-15T10:43:22.501Z,20.09
2022-09-15T10:46:02.482Z,20.01
2022-09-15T10:48:43.918Z,19.81
2022-09-15T10:51:22.977Z,19.74
2022-09-15T10:54:18.878Z,19.79
2022-09-15T10:56:50.124Z,19.89
2022-09-15T10:59:34.895Z,19.78
2022-09-15T11:02:30.538Z,19.96
2022-09-15T11:05:22.730Z,19.82
2022-09-15T11:08:03.276Z,19.90
2022-09-15T11:10:36.815Z,19.74
2022-09-15T11:13:10.492Z,19.74
2022-09-15T11:15:52.091Z,19.79
2022-09-15T11:18:40.424Z,19.73
2022-09-15T11:21:21.570Z,19.74
2022-09-15T11:23:56.691Z,19.74
2022-09-15T11:26:31.297Z,19.76
2022-09-15T11:29:06.002Z,19.67
2022-09-15T11:31:39.521Z,19.46
2022-09-15T11:34:16.340Z,19.57
2022-09-15T11:36:48.728Z,19.45
2022-09-15T11:39:24.044Z,19.45
2022-09-15T11:41:56.659Z,19.42
2022-09-15T11:44:29.603Z,19.36
2022-09-15T11:47:23.472Z,19.42
2022-09-15T11:49:57.393Z,19.34
2022-09-15T11:52:45.756Z,19.18
2022-09-15T11:55:24.379Z,19.07
2022-09-15T11:57:58.270Z,18.96
2022-09-15T12:00:26.449Z,18.72
2022-09-15T12:03:07.321Z,18.64
2022-09-15T12:05:43.888Z,18.57
2022-09-15T12:08:18.086Z,18.63
2022-09-15T12:10:50.258Z,18.62
2022-09-15T12:13:20.808Z,18.70
2022-09-15T12:15:49.780Z,18.72
2022-09-15T12:18:38.975Z,18.76
2022-09-15T12:21:18.141Z,18.80
2022-09-15T12:23:53.584Z,18.82
2022-09-15T12:26:23.846Z,18.77
2022-09-15T12:28:57.992Z,18.78
2022-09-15T12:31:32.974Z,18.89
2022-09-15T12:34:02.959Z,18.92
2022-09-15T12:36:53.709Z,18.86
2022-09-15T12:39:38.061Z,18.93
2022-09-15T12:42:22.228Z,18.78
2022-09-15T12:44:56.160Z,18.64
2022-09-15T12:47:31.998Z,18.48
2022-09-15T12:50:06.183Z,18.35
2022-09-15T12:52:44.205Z,18.28
2022-09-15T12:55:22.674Z,18.18
2022-09-15T12:58:00.212Z,18.08
2022-09-15T13:00:31.175Z,17.87
2022-09-15T13:02:59.495Z,17.72
2022-09-15T13:05:54.883Z,17.37
2022-09-15T13:08:46.908Z,17.10
2022-09-15T13:11:18.352Z,17.06
2022-09-15T13:13:51.107Z,17.11
2022-09-15T13:16:26.429Z,17.01
2022-09-15T13:19:12.502Z,16.97
2022-09-15T13:21:44.478Z,17.03
2022-09-15T13:24:20.580Z,16.78
2022-09-15T13:26:52.413Z,16.80
2022-09-15T13:29:21.309Z,16.62
2022-09-15T13:31:56.308Z,16.50
2022-09-15T13:38:12.567Z,16.10
2022-09-15T13:41:07.046Z,16.18
2022-09-15T13:43:56.427Z,16.18
2022-09-15T13:46:39.446Z,16.16
2022-09-15T13:49:32.880Z,16.04
2022-09-15T13:52:09.039Z,16.03
2022-09-15T13:54:36.987Z,15.88
2022-09-15T13:57:06.351Z,16.04
2022-09-15T13:59:34.891Z,15.98
2022-09-15T14:02:09.736Z,16.10
2022-09-15T14:04:37.817Z,16.17
2022-09-15T14:07:09.204Z,16.18
2022-09-15T14:09:50.301Z,16.11
2022-09-15T14:12:23.796Z,16.31
2022-09-15T14:14:56.109Z,16.52
2022-09-15T14:17:27.373Z,16.49
2022-09-15T14:19:59.624Z,16.40
2022-09-15T14:22:36.339Z,16.35
2022-09-15T14:25:11.938Z,16.23
2022-09-15T14:27:48.341Z,16.23
2022-09-15T14:30:22.592Z,16.49
2022-09-15T14:32:56.454Z,16.48
2022-09-15T14:35:27.235Z,16.52
2022-09-15T14:37:57.773Z,16.42
2022-09-15T14:40:30.545Z,16.64
2022-09-15T14:42:59.947Z,16.76
2022-09-15T14:46:01.166Z,16.66
2022-09-15T14:48:28.603Z,16.63
2022-09-15T14:51:09.803Z,16.78
2022-09-15T14:53:42.375Z,16.78
2022-09-15T14:56:32.144Z,16.71
2022-09-15T14:59:10.763Z,16.54
2022-09-15T15:01:52.612Z,16.58
2022-09-15T15:04:27.146Z,16.55
2022-09-15T15:07:02.769Z,16.49
2022-09-15T15:09:35.600Z,16.62
2022-09-15T15:12:14.853Z,16.73
2022-09-15T15:14:46.274Z,16.78
2022-09-15T15:17:29.017Z,17.04
2022-09-15T15:20:02.163Z,17.28
2022-09-15T15:22:31.373Z,17.36
2022-09-15T15:24:59.324Z,17.45
2022-09-15T15:27:41.594Z,17.40
2022-09-15T15:30:56.259Z,17.33
2022-09-15T15:33:29.288Z,17.32
2022-09-15T15:36:06.287Z,17.32
2022-09-15T15:38:46.418Z,17.28
2022-09-15T15:41:21.752Z,17.38
2022-09-15T15:43:57.714Z,17.37
2022-09-15T15:46:50.314Z,17.29
2022-09-15T15:49:21.108Z,17.25
2022-09-15T15:51:49.073Z,17.07
2022-09-15T15:54:17.117Z,17.03
2022-09-15T15:56:45.655Z,17.03
2022-09-15T15:59:15.243Z,16.99
2022-09-15T16:01:43.633Z,16.96
2022-09-15T16:04:14.098Z,16.89
2022-09-15T16:06:47.324Z,16.94
2022-09-15T16:09:17.831Z,17.08
2022-09-15T16:11:46.098Z,17.14
2022-09-15T16:14:16.900Z,17.23
2022-09-15T16:16:45.480Z,17.32
2022-09-15T16:19:15.255Z,17.32
2022-09-15T16:21:43.722Z,17.33
2022-09-15T16:24:15.161Z,17.46
2022-09-15T16:26:44.521Z,17.48
2022-09-15T16:29:12.963Z,17.44
2022-09-15T16:31:43.035Z,17.48
2022-09-15T16:34:17.739Z,17.42
2022-09-15T16:36:45.711Z,17.40
2022-09-15T16:39:13.649Z,17.37
2022-09-15T16:41:42.111Z,17.39
2022-09-15T16:44:18.884Z,17.37
2022-09-15T16:46:46.981Z,17.40
2022-09-15T16:49:16.352Z,17.37
2022-09-15T16:51:44.364Z,17.33
2022-09-15T16:54:17.851Z,17.26
2022-09-15T16:56:46.456Z,17.24
2022-09-15T16:59:14.678Z,17.28
2022-09-15T17:01:42.683Z,17.15
2022-09-15T17:04:13.959Z,17.16
2022-09-15T17:06:43.368Z,17.17
2022-09-15T17:09:11.413Z,17.20
2022-09-15T17:11:39.485Z,17.09
2022-09-15T17:14:07.575Z,17.01
2022-09-15T17:16:35.567Z,17.06
2022-09-15T17:19:03.554Z,17.03
2022-09-15T17:21:31.464Z,17.03
2022-09-15T17:24:00.799Z,16.98
2022-09-15T17:26:31.289Z,16.90
2022-09-15T17:28:59.802Z,16.89
2022-09-15T17:31:28.168Z,16.82
2022-09-15T17:33:56.453Z,16.85
2022-09-15T17:36:24.331Z,16.84
2022-09-15T17:38:52.370Z,16.68
2022-09-15T17:41:22.860Z,16.79
2022-09-15T17:43:52.921Z,16.72
2022-09-15T17:46:24.031Z,16.78
2022-09-15T17:48:52.083Z,16.71
2022-09-15T17:51:20.929Z,16.64
2022-09-15T17:53:49.267Z,16.63
2022-09-15T17:56:17.404Z,16.64
2022-09-15T17:58:47.564Z,16.66
2022-09-15T18:01:16.820Z,16.64
2022-09-15T18:03:51.005Z,16.69
2022-09-15T18:06:20.285Z,16.64
2022-09-15T18:08:49.912Z,16.58
2022-09-15T18:11:17.843Z,16.52
2022-09-15T18:13:47.697Z,16.46
2022-09-15T18:16:16.029Z,16.43
2022-09-15T18:18:44.110Z,16.38
2022-09-15T18:21:24.821Z,16.32
2022-09-15T18:23:55.233Z,16.32
2022-09-15T18:26:26.680Z,16.27
2022-09-15T18:28:57.400Z,16.29
2022-09-15T18:31:29.028Z,16.25
2022-09-15T18:33:57.134Z,16.29
2022-09-15T18:36:26.272Z,16.25
2022-09-15T18:38:54.300Z,16.20
2022-09-15T18:41:22.171Z,16.22
2022-09-15T18:43:50.460Z,16.19
2022-09-15T18:46:20.447Z,16.18
2022-09-15T18:48:48.378Z,16.20
2022-09-15T18:51:24.175Z,16.25
2022-09-15T18:53:57.515Z,16.23
2022-09-15T18:56:26.422Z,16.24
2022-09-15T18:58:56.963Z,16.22
2022-09-15T19:01:26.880Z,16.19
2022-09-15T19:03:57.183Z,16.17
2022-09-15T19:06:25.389Z,16.11
2022-09-15T19:08:53.508Z,16.08
2022-09-15T19:11:21.481Z,16.03
2022-09-15T19:13:50.669Z,16.00
2022-09-15T19:16:22.980Z,15.92
2022-09-15T19:18:57.427Z,15.89
2022-09-15T19:21:28.690Z,15.82
2022-09-15T19:23:59.991Z,15.80
2022-09-15T19:26:29.747Z,15.80
2022-09-15T19:28:58.344Z,15.64
2022-09-15T19:31:28.126Z,15.63
2022-09-15T19:33:58.512Z,15.54
2022-09-15T19:36:28.765Z,15.32
2022-09-15T19:38:58.669Z,15.26
2022-09-15T19:41:27.889Z,15.23
2022-09-15T19:43:55.910Z,15.23
2022-09-15T19:46:29.270Z,15.12
2022-09-15T19:48:59.356Z,14.73
2022-09-15T19:51:28.880Z,14.98
2022-09-15T19:53:57.351Z,15.20
2022-09-15T19:56:27.254Z,15.26
2022-09-15T19:58:57.269Z,15.24
2022-09-15T20:01:27.527Z,15.29
2022-09-15T20:03:57.219Z,15.19
2022-09-15T20:06:32.256Z,15.25
2022-09-15T20:09:00.992Z,14.95
2022-09-15T20:11:31.787Z,15.14
2022-09-15T20:14:01.802Z,15.12
2022-09-15T20:16:30.386Z,15.10
2022-09-15T20:19:02.588Z,15.12
2022-09-15T20:21:50.715Z,15.05
2022-09-15T20:24:20.123Z,15.13
2022-09-15T20:26:49.279Z,15.24
2022-09-15T20:29:20.003Z,15.24
2022-09-15T20:31:48.231Z,15.08
2022-09-15T20:34:16.388Z,15.12
2022-09-15T20:36:46.104Z,15.14
2022-09-15T20:39:16.357Z,15.15
2022-09-15T20:41:47.316Z,15.12
2022-09-15T20:44:16.273Z,15.07
2022-09-15T20:46:44.992Z,15.12
2022-09-15T20:49:17.742Z,15.10
2022-09-15T20:51:57.154Z,15.09
2022-09-15T20:54:27.270Z,15.12
2022-09-15T20:56:55.541Z,15.04
2022-09-15T20:59:24.162Z,15.06
2022-09-15T21:01:52.114Z,15.18
2022-09-15T21:04:21.167Z,15.15
2022-09-15T21:06:50.495Z,15.06
2022-09-15T21:09:18.788Z,15.09
2022-09-15T21:11:51.361Z,15.13
2022-09-15T21:14:21.295Z,15.16
2022-09-15T21:16:49.240Z,15.04
2022-09-15T21:19:17.467Z,14.98
2022-09-15T21:21:45.674Z,15.03
2022-09-15T21:24:15.140Z,15.07
2022-09-15T21:26:57.553Z,15.00
2022-09-15T21:29:26.480Z,15.18
2022-09-15T21:31:55.814Z,15.22
2022-09-15T21:34:24.017Z,15.17
2022-09-15T21:36:53.635Z,15.21
2022-09-15T21:39:23.075Z,15.11
2022-09-15T21:41:51.258Z,15.06
2022-09-15T21:44:19.285Z,15.10
2022-09-15T21:46:48.452Z,15.03
2022-09-15T21:49:18.122Z,15.14
2022-09-15T21:51:46.159Z,15.06
2022-09-15T21:54:14.881Z,15.12
2022-09-15T21:56:45.265Z,15.15
2022-09-15T21:59:13.361Z,15.18
2022-09-15T22:01:42.258Z,15.09
2022-09-15T22:04:11.126Z,15.07
2022-09-15T22:06:41.293Z,15.12
2022-09-15T22:09:12.489Z,15.21
2022-09-15T22:11:40.516Z,15.25
2022-09-15T22:14:10.600Z,15.25
2022-09-15T22:16:40.679Z,15.02
2022-09-15T22:19:10.424Z,15.16
2022-09-15T22:21:41.892Z,15.24
2022-09-15T22:24:12.015Z,15.24
2022-09-15T22:26:40.459Z,15.11
2022-09-15T22:29:09.847Z,15.20
2022-09-15T22:31:37.962Z,15.18
2022-09-15T22:34:06.421Z,15.27
2022-09-15T22:36:34.723Z,15.28
2022-09-15T22:39:05.567Z,15.25
2022-09-15T22:41:35.261Z,15.20
2022-09-15T22:44:04.137Z,15.22
2022-09-15T22:46:33.973Z,15.23
2022-09-15T22:49:01.940Z,15.14
2022-09-15T22:51:30.199Z,15.10
2022-09-15T22:53:58.570Z,15.08
2022-09-15T22:56:27.162Z,15.04
2022-09-15T22:58:56.554Z,15.01
2022-09-15T23:01:26.506Z,14.97
2022-09-15T23:03:57.620Z,15.00
2022-09-15T23:06:27.010Z,14.98
2022-09-15T23:08:56.333Z,15.02
2022-09-15T23:11:24.982Z,15.05
2022-09-15T23:13:53.708Z,15.12
2022-09-15T23:16:22.156Z,15.11
2022-09-15T23:18:51.107Z,15.14
2022-09-15T23:21:20.776Z,15.16
2022-09-15T23:23:49.355Z,15.13
2022-09-15T23:26:19.530Z,15.14
2022-09-15T23:28:49.248Z,15.08
2022-09-15T23:31:17.735Z,15.05
2022-09-15T23:33:45.740Z,15.06
2022-09-15T23:36:15.975Z,15.16
2022-09-15T23:38:46.968Z,15.15
2022-09-15T23:41:16.096Z,15.14
2022-09-15T23:43:44.197Z,15.09
2022-09-15T23:46:12.482Z,15.09
2022-09-15T23:48:40.600Z,15.06
2022-09-15T23:51:08.927Z,15.03
2022-09-15T23:53:36.984Z,15.06
2022-09-15T23:56:06.709Z,15.02
2022-09-15T23:58:34.779Z,14.97
